sensor_id;sensor_type;location;lat;lon;timestamp;temperature;humidity
18047;DHT22;9148;51.454;13.862;2022-12-18T00:01:37;-2.40;99.90
18047;DHT22;9148;51.454;13.862;2022-12-18T00:04:08;-2.40;99.90
18047;DHT22;9148;51.454;13.862;2022-12-18T00:06:41;-2.40;99.90
18047;DHT22;9148;51.454;13.862;2022-12-18T00:09:08;-2.30;99.90
18047;DHT22;9148;51.454;13.862;2022-12-18T00:11:34;-2.40;99.90
18047;DHT22;9148;51.454;13.862;2022-12-18T00:14:00;-2.20;99.90
18047;DHT22;9148;51.454;13.862;2022-12-18T00:16:27;-2.30;99.90
18047;DHT22;9148;51.454;13.862;2022-12-18T00:18:59;-2.30;99.90
18047;DHT22;9148;51.454;13.862;2022-12-18T00:21:26;-2.40;99.90
18047;DHT22;9148;51.454;13.862;2022-12-18T00:23:53;-2.40;99.90
18047;DHT22;9148;51.454;13.862;2022-12-18T00:26:25;-2.50;99.90
18047;DHT22;9148;51.454;13.862;2022-12-18T00:28:52;-2.30;99.90
18047;DHT22;9148;51.454;13.862;2022-12-18T00:31:21;-2.50;99.90
18047;DHT22;9148;51.454;13.862;2022-12-18T00:33:48;-2.50;99.90
18047;DHT22;9148;51.454;13.862;2022-12-18T00:36:16;-2.40;99.90
18047;DHT22;9148;51.454;13.862;2022-12-18T00:38:45;-2.50;99.90
18047;DHT22;9148;51.454;13.862;2022-12-18T00:41:13;-2.50;99.90
18047;DHT22;9148;51.454;13.862;2022-12-18T00:44:00;-2.40;99.90
18047;DHT22;9148;51.454;13.862;2022-12-18T00:46:26;-2.30;99.90
18047;DHT22;9148;51.454;13.862;2022-12-18T00:48:52;-2.40;99.90
18047;DHT22;9148;51.454;13.862;2022-12-18T00:51:18;-3.20;99.90
18047;DHT22;9148;51.454;13.862;2022-12-18T00:53:44;-2.60;99.90
18047;DHT22;9148;51.454;13.862;2022-12-18T00:56:09;-2.60;99.90
18047;DHT22;9148;51.454;13.862;2022-12-18T00:58:35;-2.70;99.90
18047;DHT22;9148;51.454;13.862;2022-12-18T01:01:03;-2.60;99.90
18047;DHT22;9148;51.454;13.862;2022-12-18T01:03:29;-2.70;99.90
18047;DHT22;9148;51.454;13.862;2022-12-18T01:05:56;-2.70;99.90
18047;DHT22;9148;51.454;13.862;2022-12-18T01:08:22;-2.70;99.90
18047;DHT22;9148;51.454;13.862;2022-12-18T01:10:47;-2.70;99.90
18047;DHT22;9148;51.454;13.862;2022-12-18T01:13:13;-2.70;99.90
18047;DHT22;9148;51.454;13.862;2022-12-18T01:15:39;-2.70;99.90
18047;DHT22;9148;51.454;13.862;2022-12-18T01:18:06;-2.80;99.90
18047;DHT22;9148;51.454;13.862;2022-12-18T01:20:32;-2.80;99.90
18047;DHT22;9148;51.454;13.862;2022-12-18T01:22:58;-2.80;99.90
18047;DHT22;9148;51.454;13.862;2022-12-18T01:25:24;-2.80;99.90
18047;DHT22;9148;51.454;13.862;2022-12-18T01:27:50;-2.80;99.90
18047;DHT22;9148;51.454;13.862;2022-12-18T01:30:16;-2.70;99.90
18047;DHT22;9148;51.454;13.862;2022-12-18T01:32:42;-2.80;99.90
18047;DHT22;9148;51.454;13.862;2022-12-18T01:35:08;-2.70;99.90
18047;DHT22;9148;51.454;13.862;2022-12-18T01:37:34;-2.90;99.90
18047;DHT22;9148;51.454;13.862;2022-12-18T01:39:59;-2.90;99.90
18047;DHT22;9148;51.454;13.862;2022-12-18T01:42:25;-2.90;99.90
18047;DHT22;9148;51.454;13.862;2022-12-18T01:45:06;-3.00;99.90
18047;DHT22;9148;51.454;13.862;2022-12-18T01:47:53;-3.00;99.90
18047;DHT22;9148;51.454;13.862;2022-12-18T01:50:44;-2.90;99.90
18047;DHT22;9148;51.454;13.862;2022-12-18T01:53:23;-3.00;99.90
18047;DHT22;9148;51.454;13.862;2022-12-18T01:55:50;-3.10;99.90
18047;DHT22;9148;51.454;13.862;2022-12-18T01:58:19;-3.10;99.90
18047;DHT22;9148;51.454;13.862;2022-12-18T02:00:46;-2.20;99.90
18047;DHT22;9148;51.454;13.862;2022-12-18T02:03:12;-3.10;99.90
18047;DHT22;9148;51.454;13.862;2022-12-18T02:08:48;-3.10;99.90
18047;DHT22;9148;51.454;13.862;2022-12-18T02:17:22;-2.90;99.90
18047;DHT22;9148;51.454;13.862;2022-12-18T02:28:53;-3.20;99.90
18047;DHT22;9148;51.454;13.862;2022-12-18T02:31:30;-3.10;99.90
18047;DHT22;9148;51.454;13.862;2022-12-18T02:34:06;-3.20;99.90
18047;DHT22;9148;51.454;13.862;2022-12-18T02:36:34;-3.30;99.90
18047;DHT22;9148;51.454;13.862;2022-12-18T02:39:02;-3.30;99.90
18047;DHT22;9148;51.454;13.862;2022-12-18T02:41:28;-3.30;99.90
18047;DHT22;9148;51.454;13.862;2022-12-18T02:43:59;-3.40;99.90
18047;DHT22;9148;51.454;13.862;2022-12-18T02:46:28;-3.50;99.90
18047;DHT22;9148;51.454;13.862;2022-12-18T02:52:27;-3.40;99.90
18047;DHT22;9148;51.454;13.862;2022-12-18T03:01:34;-3.50;99.90
18047;DHT22;9148;51.454;13.862;2022-12-18T03:04:29;-3.40;99.90
18047;DHT22;9148;51.454;13.862;2022-12-18T03:07:05;-3.40;99.90
18047;DHT22;9148;51.454;13.862;2022-12-18T03:09:38;-3.50;99.90
18047;DHT22;9148;51.454;13.862;2022-12-18T03:12:14;-3.20;99.90
18047;DHT22;9148;51.454;13.862;2022-12-18T03:14:55;-3.40;99.90
18047;DHT22;9148;51.454;13.862;2022-12-18T03:17:26;-3.50;99.90
18047;DHT22;9148;51.454;13.862;2022-12-18T03:19:55;-3.40;99.90
18047;DHT22;9148;51.454;13.862;2022-12-18T03:22:24;-3.50;99.90
18047;DHT22;9148;51.454;13.862;2022-12-18T03:24:54;-3.60;99.90
18047;DHT22;9148;51.454;13.862;2022-12-18T03:27:24;-3.50;99.90
18047;DHT22;9148;51.454;13.862;2022-12-18T03:29:58;-3.40;99.90
18047;DHT22;9148;51.454;13.862;2022-12-18T03:32:38;-3.50;99.90
18047;DHT22;9148;51.454;13.862;2022-12-18T03:35:13;-3.50;99.90
18047;DHT22;9148;51.454;13.862;2022-12-18T03:37:44;-3.60;99.90
18047;DHT22;9148;51.454;13.862;2022-12-18T03:40:10;-3.60;99.90
18047;DHT22;9148;51.454;13.862;2022-12-18T03:42:43;-3.60;99.90
18047;DHT22;9148;51.454;13.862;2022-12-18T03:45:25;-3.70;99.90
18047;DHT22;9148;51.454;13.862;2022-12-18T03:48:17;-3.70;99.90
18047;DHT22;9148;51.454;13.862;2022-12-18T03:50:50;-3.70;99.90
18047;DHT22;9148;51.454;13.862;2022-12-18T03:53:57;-3.70;99.90
18047;DHT22;9148;51.454;13.862;2022-12-18T03:56:28;-3.60;99.90
18047;DHT22;9148;51.454;13.862;2022-12-18T03:58:56;-3.70;99.90
18047;DHT22;9148;51.454;13.862;2022-12-18T04:01:28;-3.70;99.90
18047;DHT22;9148;51.454;13.862;2022-12-18T04:04:00;-3.70;99.90
18047;DHT22;9148;51.454;13.862;2022-12-18T04:06:28;-3.60;99.90
18047;DHT22;9148;51.454;13.862;2022-12-18T04:08:57;-3.10;99.90
18047;DHT22;9148;51.454;13.862;2022-12-18T04:11:23;-3.80;99.90
18047;DHT22;9148;51.454;13.862;2022-12-18T04:13:56;-3.70;99.90
18047;DHT22;9148;51.454;13.862;2022-12-18T04:16:26;-3.60;99.90
18047;DHT22;9148;51.454;13.862;2022-12-18T04:18:53;-3.70;99.90
18047;DHT22;9148;51.454;13.862;2022-12-18T04:21:19;-3.60;99.90
18047;DHT22;9148;51.454;13.862;2022-12-18T04:23:45;-3.50;99.90
18047;DHT22;9148;51.454;13.862;2022-12-18T04:26:11;-3.50;99.90
18047;DHT22;9148;51.454;13.862;2022-12-18T04:28:37;-3.60;99.90
18047;DHT22;9148;51.454;13.862;2022-12-18T04:31:03;-3.50;99.90
18047;DHT22;9148;51.454;13.862;2022-12-18T04:33:29;-3.60;99.90
18047;DHT22;9148;51.454;13.862;2022-12-18T04:35:55;-3.40;99.90
18047;DHT22;9148;51.454;13.862;2022-12-18T04:38:21;-3.50;99.90
18047;DHT22;9148;51.454;13.862;2022-12-18T04:40:47;-3.50;99.90
18047;DHT22;9148;51.454;13.862;2022-12-18T04:43:13;-3.60;99.90
18047;DHT22;9148;51.454;13.862;2022-12-18T04:45:39;-3.60;99.90
18047;DHT22;9148;51.454;13.862;2022-12-18T04:48:05;-3.60;99.90
18047;DHT22;9148;51.454;13.862;2022-12-18T04:50:31;-3.50;99.90
18047;DHT22;9148;51.454;13.862;2022-12-18T04:52:57;-3.60;99.90
18047;DHT22;9148;51.454;13.862;2022-12-18T04:55:23;-2.40;99.90
18047;DHT22;9148;51.454;13.862;2022-12-18T04:57:49;-3.70;99.90
18047;DHT22;9148;51.454;13.862;2022-12-18T05:00:15;-3.70;99.90
18047;DHT22;9148;51.454;13.862;2022-12-18T05:02:41;-3.80;99.90
18047;DHT22;9148;51.454;13.862;2022-12-18T05:05:07;-3.70;99.90
18047;DHT22;9148;51.454;13.862;2022-12-18T05:07:34;-3.80;99.90
18047;DHT22;9148;51.454;13.862;2022-12-18T05:09:59;-3.70;99.90
18047;DHT22;9148;51.454;13.862;2022-12-18T05:12:25;-3.90;99.90
18047;DHT22;9148;51.454;13.862;2022-12-18T05:14:51;-3.80;99.90
18047;DHT22;9148;51.454;13.862;2022-12-18T05:17:17;-3.90;99.90
18047;DHT22;9148;51.454;13.862;2022-12-18T05:19:43;-2.90;99.90
18047;DHT22;9148;51.454;13.862;2022-12-18T05:22:09;-2.70;99.90
18047;DHT22;9148;51.454;13.862;2022-12-18T05:24:35;-3.90;99.90
18047;DHT22;9148;51.454;13.862;2022-12-18T05:27:01;-3.90;99.90
18047;DHT22;9148;51.454;13.862;2022-12-18T05:29:27;-4.10;99.90
18047;DHT22;9148;51.454;13.862;2022-12-18T05:31:53;-4.10;99.90
18047;DHT22;9148;51.454;13.862;2022-12-18T05:34:19;-4.00;99.90
18047;DHT22;9148;51.454;13.862;2022-12-18T05:36:45;-4.00;99.90
18047;DHT22;9148;51.454;13.862;2022-12-18T05:39:10;-4.00;99.90
18047;DHT22;9148;51.454;13.862;2022-12-18T05:41:36;-4.00;99.90
18047;DHT22;9148;51.454;13.862;2022-12-18T05:44:02;-4.10;99.90
18047;DHT22;9148;51.454;13.862;2022-12-18T05:46:28;-4.10;99.90
18047;DHT22;9148;51.454;13.862;2022-12-18T05:48:55;-4.10;99.90
18047;DHT22;9148;51.454;13.862;2022-12-18T05:51:22;-4.20;99.90
18047;DHT22;9148;51.454;13.862;2022-12-18T05:53:48;-4.10;99.90
18047;DHT22;9148;51.454;13.862;2022-12-18T05:56:17;-4.10;99.90
18047;DHT22;9148;51.454;13.862;2022-12-18T05:58:44;-4.10;99.90
18047;DHT22;9148;51.454;13.862;2022-12-18T06:01:14;-4.20;99.90
18047;DHT22;9148;51.454;13.862;2022-12-18T06:03:45;-3.40;99.90
18047;DHT22;9148;51.454;13.862;2022-12-18T06:06:18;-3.30;99.90
18047;DHT22;9148;51.454;13.862;2022-12-18T06:08:48;-4.20;99.90
18047;DHT22;9148;51.454;13.862;2022-12-18T06:11:21;-4.30;99.90
18047;DHT22;9148;51.454;13.862;2022-12-18T06:13:56;-4.30;99.90
18047;DHT22;9148;51.454;13.862;2022-12-18T06:16:22;-4.30;99.90
18047;DHT22;9148;51.454;13.862;2022-12-18T06:18:48;-4.30;99.90
18047;DHT22;9148;51.454;13.862;2022-12-18T06:21:15;-4.50;99.90
18047;DHT22;9148;51.454;13.862;2022-12-18T06:23:41;-4.40;99.90
18047;DHT22;9148;51.454;13.862;2022-12-18T06:26:09;-4.50;99.90
18047;DHT22;9148;51.454;13.862;2022-12-18T06:28:36;-4.40;99.90
18047;DHT22;9148;51.454;13.862;2022-12-18T06:31:04;-4.40;99.90
18047;DHT22;9148;51.454;13.862;2022-12-18T06:33:31;-4.30;99.90
18047;DHT22;9148;51.454;13.862;2022-12-18T06:36:09;-4.30;99.90
18047;DHT22;9148;51.454;13.862;2022-12-18T06:38:39;-4.40;99.90
18047;DHT22;9148;51.454;13.862;2022-12-18T06:41:11;-4.40;99.90
18047;DHT22;9148;51.454;13.862;2022-12-18T06:43:38;-3.40;99.90
18047;DHT22;9148;51.454;13.862;2022-12-18T06:46:04;-4.40;99.90
18047;DHT22;9148;51.454;13.862;2022-12-18T06:48:31;-4.50;99.90
18047;DHT22;9148;51.454;13.862;2022-12-18T06:50:57;-4.60;99.90
18047;DHT22;9148;51.454;13.862;2022-12-18T06:53:23;-4.60;99.90
18047;DHT22;9148;51.454;13.862;2022-12-18T06:55:49;-4.50;99.90
18047;DHT22;9148;51.454;13.862;2022-12-18T06:58:15;-4.50;99.90
18047;DHT22;9148;51.454;13.862;2022-12-18T07:00:41;-3.60;99.90
18047;DHT22;9148;51.454;13.862;2022-12-18T07:03:06;-4.60;99.90
18047;DHT22;9148;51.454;13.862;2022-12-18T07:05:32;-4.50;99.90
18047;DHT22;9148;51.454;13.862;2022-12-18T07:07:58;-3.20;99.90
18047;DHT22;9148;51.454;13.862;2022-12-18T07:10:24;-4.20;99.90
18047;DHT22;9148;51.454;13.862;2022-12-18T07:12:50;-4.60;99.90
18047;DHT22;9148;51.454;13.862;2022-12-18T07:15:16;-4.70;99.90
18047;DHT22;9148;51.454;13.862;2022-12-18T07:17:42;-4.70;99.90
18047;DHT22;9148;51.454;13.862;2022-12-18T07:20:08;-4.80;99.90
18047;DHT22;9148;51.454;13.862;2022-12-18T07:22:34;-4.70;99.90
18047;DHT22;9148;51.454;13.862;2022-12-18T07:25:00;-4.20;99.90
18047;DHT22;9148;51.454;13.862;2022-12-18T07:27:26;-4.60;99.90
18047;DHT22;9148;51.454;13.862;2022-12-18T07:29:51;-4.90;99.90
18047;DHT22;9148;51.454;13.862;2022-12-18T07:32:17;-4.90;99.90
18047;DHT22;9148;51.454;13.862;2022-12-18T07:34:43;-4.90;99.90
18047;DHT22;9148;51.454;13.862;2022-12-18T07:37:09;-5.00;99.90
18047;DHT22;9148;51.454;13.862;2022-12-18T07:39:34;-3.80;99.90
18047;DHT22;9148;51.454;13.862;2022-12-18T07:42:00;-4.90;99.90
18047;DHT22;9148;51.454;13.862;2022-12-18T07:44:45;-5.10;99.90
18047;DHT22;9148;51.454;13.862;2022-12-18T07:47:11;-5.10;99.90
18047;DHT22;9148;51.454;13.862;2022-12-18T07:49:37;-5.20;99.90
18047;DHT22;9148;51.454;13.862;2022-12-18T07:52:03;-5.20;99.90
18047;DHT22;9148;51.454;13.862;2022-12-18T07:54:29;-5.00;99.90
18047;DHT22;9148;51.454;13.862;2022-12-18T07:56:54;-4.90;99.90
18047;DHT22;9148;51.454;13.862;2022-12-18T07:59:20;-4.90;99.90
18047;DHT22;9148;51.454;13.862;2022-12-18T08:01:46;-4.80;99.90
18047;DHT22;9148;51.454;13.862;2022-12-18T08:04:12;-4.70;99.90
18047;DHT22;9148;51.454;13.862;2022-12-18T08:06:38;-4.50;99.90
18047;DHT22;9148;51.454;13.862;2022-12-18T08:09:04;-4.40;99.90
18047;DHT22;9148;51.454;13.862;2022-12-18T08:11:30;-4.20;99.90
18047;DHT22;9148;51.454;13.862;2022-12-18T08:13:55;-3.00;99.90
18047;DHT22;9148;51.454;13.862;2022-12-18T08:16:22;-3.90;99.90
18047;DHT22;9148;51.454;13.862;2022-12-18T08:18:49;-3.70;99.90
18047;DHT22;9148;51.454;13.862;2022-12-18T08:21:19;-3.60;99.90
18047;DHT22;9148;51.454;13.862;2022-12-18T08:23:48;-3.40;99.90
18047;DHT22;9148;51.454;13.862;2022-12-18T08:26:15;-3.20;99.90
18047;DHT22;9148;51.454;13.862;2022-12-18T08:28:42;-3.10;99.90
18047;DHT22;9148;51.454;13.862;2022-12-18T08:31:09;-3.00;99.90
18047;DHT22;9148;51.454;13.862;2022-12-18T08:33:36;-2.80;99.90
18047;DHT22;9148;51.454;13.862;2022-12-18T08:36:04;-2.60;99.90
18047;DHT22;9148;51.454;13.862;2022-12-18T08:38:32;-2.40;99.90
18047;DHT22;9148;51.454;13.862;2022-12-18T08:41:07;-1.30;99.90
18047;DHT22;9148;51.454;13.862;2022-12-18T08:43:34;-2.00;99.90
18047;DHT22;9148;51.454;13.862;2022-12-18T08:46:20;-2.00;99.90
18047;DHT22;9148;51.454;13.862;2022-12-18T08:48:46;-1.80;99.90
18047;DHT22;9148;51.454;13.862;2022-12-18T08:51:12;-1.10;99.90
18047;DHT22;9148;51.454;13.862;2022-12-18T08:53:38;-1.80;99.90
18047;DHT22;9148;51.454;13.862;2022-12-18T08:56:04;-1.80;99.90
18047;DHT22;9148;51.454;13.862;2022-12-18T08:58:30;-1.70;99.90
18047;DHT22;9148;51.454;13.862;2022-12-18T09:01:04;-1.60;99.90
18047;DHT22;9148;51.454;13.862;2022-12-18T09:03:30;-1.60;99.90
18047;DHT22;9148;51.454;13.862;2022-12-18T09:05:56;-1.50;99.90
18047;DHT22;9148;51.454;13.862;2022-12-18T09:08:22;-1.30;99.90
18047;DHT22;9148;51.454;13.862;2022-12-18T09:10:49;-1.30;99.90
18047;DHT22;9148;51.454;13.862;2022-12-18T09:13:16;-1.20;99.90
18047;DHT22;9148;51.454;13.862;2022-12-18T09:15:43;-1.00;99.90
18047;DHT22;9148;51.454;13.862;2022-12-18T09:18:11;-0.80;99.90
18047;DHT22;9148;51.454;13.862;2022-12-18T09:20:38;-0.60;99.90
18047;DHT22;9148;51.454;13.862;2022-12-18T09:23:05;-0.50;99.90
18047;DHT22;9148;51.454;13.862;2022-12-18T09:25:32;0.50;99.90
18047;DHT22;9148;51.454;13.862;2022-12-18T09:28:03;-0.30;99.90
18047;DHT22;9148;51.454;13.862;2022-12-18T09:30:30;0.00;99.90
18047;DHT22;9148;51.454;13.862;2022-12-18T09:32:59;0.10;99.90
18047;DHT22;9148;51.454;13.862;2022-12-18T09:35:25;0.20;99.90
18047;DHT22;9148;51.454;13.862;2022-12-18T09:37:53;0.70;99.90
18047;DHT22;9148;51.454;13.862;2022-12-18T09:40:22;0.60;99.90
18047;DHT22;9148;51.454;13.862;2022-12-18T09:42:54;0.90;99.90
18047;DHT22;9148;51.454;13.862;2022-12-18T09:45:22;1.10;99.90
18047;DHT22;9148;51.454;13.862;2022-12-18T09:47:51;1.30;99.90
18047;DHT22;9148;51.454;13.862;2022-12-18T09:50:29;1.40;99.90
18047;DHT22;9148;51.454;13.862;2022-12-18T09:53:00;1.60;99.90
18047;DHT22;9148;51.454;13.862;2022-12-18T09:55:34;2.80;99.90
18047;DHT22;9148;51.454;13.862;2022-12-18T09:58:33;1.90;99.90
18047;DHT22;9148;51.454;13.862;2022-12-18T10:01:01;1.90;99.90
18047;DHT22;9148;51.454;13.862;2022-12-18T10:03:27;1.90;99.90
18047;DHT22;9148;51.454;13.862;2022-12-18T10:20:18;1.60;99.90
18047;DHT22;9148;51.454;13.862;2022-12-18T10:22:53;1.60;99.90
18047;DHT22;9148;51.454;13.862;2022-12-18T10:26:02;1.60;99.90
18047;DHT22;9148;51.454;13.862;2022-12-18T10:28:37;1.70;99.90
18047;DHT22;9148;51.454;13.862;2022-12-18T10:31:16;1.70;99.90
18047;DHT22;9148;51.454;13.862;2022-12-18T10:33:44;2.00;99.90
18047;DHT22;9148;51.454;13.862;2022-12-18T10:36:10;1.80;99.90
18047;DHT22;9148;51.454;13.862;2022-12-18T10:38:36;1.80;99.90
18047;DHT22;9148;51.454;13.862;2022-12-18T10:43:42;1.80;99.90
18047;DHT22;9148;51.454;13.862;2022-12-18T10:51:05;2.00;98.70
18047;DHT22;9148;51.454;13.862;2022-12-18T10:53:34;1.80;99.30
18047;DHT22;9148;51.454;13.862;2022-12-18T10:56:03;2.00;99.90
18047;DHT22;9148;51.454;13.862;2022-12-18T10:58:33;2.80;99.90
18047;DHT22;9148;51.454;13.862;2022-12-18T11:01:09;2.10;99.20
18047;DHT22;9148;51.454;13.862;2022-12-18T11:06:22;2.10;98.10
18047;DHT22;9148;51.454;13.862;2022-12-18T11:09:21;2.10;98.40
18047;DHT22;9148;51.454;13.862;2022-12-18T11:11:50;2.00;97.50
18047;DHT22;9148;51.454;13.862;2022-12-18T11:14:29;2.00;97.80
18047;DHT22;9148;51.454;13.862;2022-12-18T11:16:57;2.00;97.10
18047;DHT22;9148;51.454;13.862;2022-12-18T11:19:33;2.00;97.80
18047;DHT22;9148;51.454;13.862;2022-12-18T11:22:02;2.10;98.00
18047;DHT22;9148;51.454;13.862;2022-12-18T11:24:42;2.70;97.50
18047;DHT22;9148;51.454;13.862;2022-12-18T11:27:17;2.00;96.80
18047;DHT22;9148;51.454;13.862;2022-12-18T11:29:43;1.90;96.40
18047;DHT22;9148;51.454;13.862;2022-12-18T11:32:34;2.00;96.80
18047;DHT22;9148;51.454;13.862;2022-12-18T11:38:05;1.80;96.80
18047;DHT22;9148;51.454;13.862;2022-12-18T11:40:44;1.80;97.10
18047;DHT22;9148;51.454;13.862;2022-12-18T11:43:17;2.10;97.10
18047;DHT22;9148;51.454;13.862;2022-12-18T11:45:52;2.10;97.00
18047;DHT22;9148;51.454;13.862;2022-12-18T11:48:30;2.10;96.50
18047;DHT22;9148;51.454;13.862;2022-12-18T11:51:02;2.20;96.20
18047;DHT22;9148;51.454;13.862;2022-12-18T11:53:29;2.20;95.70
18047;DHT22;9148;51.454;13.862;2022-12-18T11:59:07;1.90;95.50
18047;DHT22;9148;51.454;13.862;2022-12-18T12:01:56;1.80;96.00
18047;DHT22;9148;51.454;13.862;2022-12-18T12:04:48;2.20;96.90
18047;DHT22;9148;51.454;13.862;2022-12-18T12:07:55;1.90;96.60
18047;DHT22;9148;51.454;13.862;2022-12-18T12:10:32;2.20;96.70
18047;DHT22;9148;51.454;13.862;2022-12-18T12:19:24;2.50;96.00
18047;DHT22;9148;51.454;13.862;2022-12-18T12:31:16;2.70;95.80
18047;DHT22;9148;51.454;13.862;2022-12-18T12:33:56;2.80;95.20
18047;DHT22;9148;51.454;13.862;2022-12-18T12:39:14;2.70;93.10
18047;DHT22;9148;51.454;13.862;2022-12-18T12:41:45;2.60;94.20
18047;DHT22;9148;51.454;13.862;2022-12-18T12:44:38;2.60;93.80
18047;DHT22;9148;51.454;13.862;2022-12-18T12:47:39;2.70;94.30
18047;DHT22;9148;51.454;13.862;2022-12-18T12:50:13;2.70;93.80
18047;DHT22;9148;51.454;13.862;2022-12-18T12:52:53;2.60;93.30
18047;DHT22;9148;51.454;13.862;2022-12-18T12:55:25;2.60;93.30
18047;DHT22;9148;51.454;13.862;2022-12-18T12:58:14;2.40;93.60
18047;DHT22;9148;51.454;13.862;2022-12-18T13:00:53;2.30;92.60
18047;DHT22;9148;51.454;13.862;2022-12-18T13:03:31;2.10;93.30
18047;DHT22;9148;51.454;13.862;2022-12-18T13:06:23;1.80;93.70
18047;DHT22;9148;51.454;13.862;2022-12-18T13:09:11;1.70;93.60
18047;DHT22;9148;51.454;13.862;2022-12-18T13:11:42;1.40;94.10
18047;DHT22;9148;51.454;13.862;2022-12-18T13:14:39;1.20;94.40
18047;DHT22;9148;51.454;13.862;2022-12-18T13:17:17;1.10;95.10
18047;DHT22;9148;51.454;13.862;2022-12-18T13:20:04;1.10;95.30
18047;DHT22;9148;51.454;13.862;2022-12-18T13:22:39;0.90;95.40
18047;DHT22;9148;51.454;13.862;2022-12-18T13:25:30;0.70;95.50
18047;DHT22;9148;51.454;13.862;2022-12-18T13:28:05;0.60;95.80
18047;DHT22;9148;51.454;13.862;2022-12-18T13:40:58;0.10;97.50
18047;DHT22;9148;51.454;13.862;2022-12-18T13:43:47;-0.10;97.70
18047;DHT22;9148;51.454;13.862;2022-12-18T13:52:01;-0.60;99.10
18047;DHT22;9148;51.454;13.862;2022-12-18T13:54:40;-0.60;99.70
18047;DHT22;9148;51.454;13.862;2022-12-18T13:57:37;-0.70;99.80
18047;DHT22;9148;51.454;13.862;2022-12-18T14:02:48;-0.90;99.90
18047;DHT22;9148;51.454;13.862;2022-12-18T14:05:28;-1.00;99.90
18047;DHT22;9148;51.454;13.862;2022-12-18T14:08:04;-1.10;99.90
18047;DHT22;9148;51.454;13.862;2022-12-18T14:10:33;-1.10;99.90
18047;DHT22;9148;51.454;13.862;2022-12-18T14:13:04;-1.30;99.90
18047;DHT22;9148;51.454;13.862;2022-12-18T14:15:51;-1.50;99.90
18047;DHT22;9148;51.454;13.862;2022-12-18T14:20:57;-1.80;99.90
18047;DHT22;9148;51.454;13.862;2022-12-18T14:23:32;-1.10;99.90
18047;DHT22;9148;51.454;13.862;2022-12-18T14:26:29;-2.10;99.90
18047;DHT22;9148;51.454;13.862;2022-12-18T14:28:56;-2.20;99.90
18047;DHT22;9148;51.454;13.862;2022-12-18T14:31:26;-2.30;99.90
18047;DHT22;9148;51.454;13.862;2022-12-18T14:33:54;-2.30;99.90
18047;DHT22;9148;51.454;13.862;2022-12-18T14:36:22;-2.40;99.90
18047;DHT22;9148;51.454;13.862;2022-12-18T14:38:56;-2.40;99.90
18047;DHT22;9148;51.454;13.862;2022-12-18T14:41:23;-2.60;99.90
18047;DHT22;9148;51.454;13.862;2022-12-18T14:43:52;-2.60;99.90
18047;DHT22;9148;51.454;13.862;2022-12-18T14:46:36;-2.70;99.90
18047;DHT22;9148;51.454;13.862;2022-12-18T14:51:31;-2.90;99.90
18047;DHT22;9148;51.454;13.862;2022-12-18T14:54:01;-2.90;99.90
18047;DHT22;9148;51.454;13.862;2022-12-18T14:56:37;-3.00;99.90
18047;DHT22;9148;51.454;13.862;2022-12-18T14:59:23;-3.00;99.90
18047;DHT22;9148;51.454;13.862;2022-12-18T15:02:15;-3.10;99.90
18047;DHT22;9148;51.454;13.862;2022-12-18T15:04:45;-3.10;99.90
18047;DHT22;9148;51.454;13.862;2022-12-18T15:07:19;-3.30;99.90
18047;DHT22;9148;51.454;13.862;2022-12-18T15:13:05;-3.40;99.90
18047;DHT22;9148;51.454;13.862;2022-12-18T15:25:49;-3.90;99.90
18047;DHT22;9148;51.454;13.862;2022-12-18T15:28:28;-3.70;99.90
18047;DHT22;9148;51.454;13.862;2022-12-18T15:36:17;-4.00;99.90
18047;DHT22;9148;51.454;13.862;2022-12-18T15:38:53;-4.00;99.90
18047;DHT22;9148;51.454;13.862;2022-12-18T15:41:21;-4.10;99.90
18047;DHT22;9148;51.454;13.862;2022-12-18T15:43:48;-4.00;99.90
18047;DHT22;9148;51.454;13.862;2022-12-18T15:46:20;-4.20;99.90
18047;DHT22;9148;51.454;13.862;2022-12-18T15:48:48;-4.30;99.90
18047;DHT22;9148;51.454;13.862;2022-12-18T15:53:55;-4.20;99.90
18047;DHT22;9148;51.454;13.862;2022-12-18T15:56:22;-4.50;99.90
18047;DHT22;9148;51.454;13.862;2022-12-18T15:59:12;-4.30;99.90
18047;DHT22;9148;51.454;13.862;2022-12-18T16:01:40;-4.40;99.90
18047;DHT22;9148;51.454;13.862;2022-12-18T16:04:06;-4.40;99.90
18047;DHT22;9148;51.454;13.862;2022-12-18T16:06:33;-4.50;99.90
18047;DHT22;9148;51.454;13.862;2022-12-18T16:08:59;-4.60;99.90
18047;DHT22;9148;51.454;13.862;2022-12-18T16:11:29;-4.60;99.90
18047;DHT22;9148;51.454;13.862;2022-12-18T16:16:51;-4.60;99.90
18047;DHT22;9148;51.454;13.862;2022-12-18T16:19:18;-4.70;99.90
18047;DHT22;9148;51.454;13.862;2022-12-18T16:21:45;-4.80;99.90
18047;DHT22;9148;51.454;13.862;2022-12-18T16:24:15;-4.20;99.90
18047;DHT22;9148;51.454;13.862;2022-12-18T16:26:47;-4.80;99.90
18047;DHT22;9148;51.454;13.862;2022-12-18T16:29:13;-3.70;99.90
18047;DHT22;9148;51.454;13.862;2022-12-18T16:31:39;-5.00;99.90
18047;DHT22;9148;51.454;13.862;2022-12-18T16:34:25;-4.90;99.90
18047;DHT22;9148;51.454;13.862;2022-12-18T16:36:58;-4.90;99.90
18047;DHT22;9148;51.454;13.862;2022-12-18T16:39:25;-4.90;99.90
18047;DHT22;9148;51.454;13.862;2022-12-18T16:41:52;-4.90;99.90
18047;DHT22;9148;51.454;13.862;2022-12-18T16:44:18;-5.10;99.90
18047;DHT22;9148;51.454;13.862;2022-12-18T16:46:44;-6.10;99.90
18047;DHT22;9148;51.454;13.862;2022-12-18T16:49:14;-4.30;99.90
18047;DHT22;9148;51.454;13.862;2022-12-18T16:51:41;-5.20;99.90
18047;DHT22;9148;51.454;13.862;2022-12-18T16:54:08;-4.60;99.90
18047;DHT22;9148;51.454;13.862;2022-12-18T16:56:34;-4.20;99.90
18047;DHT22;9148;51.454;13.862;2022-12-18T16:59:01;-4.70;99.90
18047;DHT22;9148;51.454;13.862;2022-12-18T17:01:28;-5.10;99.90
18047;DHT22;9148;51.454;13.862;2022-12-18T17:03:58;-4.30;99.90
18047;DHT22;9148;51.454;13.862;2022-12-18T17:06:26;-5.30;99.90
18047;DHT22;9148;51.454;13.862;2022-12-18T17:09:05;-5.30;99.90
18047;DHT22;9148;51.454;13.862;2022-12-18T17:11:33;-5.20;99.90
18047;DHT22;9148;51.454;13.862;2022-12-18T17:14:05;-5.30;99.90
18047;DHT22;9148;51.454;13.862;2022-12-18T17:16:32;-5.40;99.90
18047;DHT22;9148;51.454;13.862;2022-12-18T17:18:58;-5.30;99.90
18047;DHT22;9148;51.454;13.862;2022-12-18T17:21:24;-5.50;99.90
18047;DHT22;9148;51.454;13.862;2022-12-18T17:23:50;-5.30;99.90
18047;DHT22;9148;51.454;13.862;2022-12-18T17:26:15;-5.30;99.90
18047;DHT22;9148;51.454;13.862;2022-12-18T17:28:41;-5.00;99.90
18047;DHT22;9148;51.454;13.862;2022-12-18T17:31:21;-5.30;99.90
18047;DHT22;9148;51.454;13.862;2022-12-18T17:33:47;-5.30;99.90
18047;DHT22;9148;51.454;13.862;2022-12-18T17:36:14;-5.50;99.90
18047;DHT22;9148;51.454;13.862;2022-12-18T17:38:52;-4.50;99.90
18047;DHT22;9148;51.454;13.862;2022-12-18T17:41:21;-5.50;99.90
18047;DHT22;9148;51.454;13.862;2022-12-18T17:44:24;-5.50;99.90
18047;DHT22;9148;51.454;13.862;2022-12-18T17:46:43;-5.60;99.90
18047;DHT22;9148;51.454;13.862;2022-12-18T17:49:10;-5.60;99.90
18047;DHT22;9148;51.454;13.862;2022-12-18T17:51:36;-5.50;99.90
18047;DHT22;9148;51.454;13.862;2022-12-18T17:54:02;-5.60;99.90
18047;DHT22;9148;51.454;13.862;2022-12-18T17:56:29;-5.70;99.90
18047;DHT22;9148;51.454;13.862;2022-12-18T17:58:55;-5.70;99.90
18047;DHT22;9148;51.454;13.862;2022-12-18T18:01:23;-5.60;99.90
18047;DHT22;9148;51.454;13.862;2022-12-18T18:03:50;-4.60;99.90